createdAt,value
2023-11-24T00:00:27.518Z,19.05
2023-11-24T00:03:21.287Z,19.04
2023-11-24T00:05:54.985Z,19.05
2023-11-24T00:08:28.689Z,19.04
2023-11-24T00:11:04.663Z,19.05
2023-11-24T00:13:38.073Z,19.01
2023-11-24T00:16:12.815Z,19.02
2023-11-24T00:18:46.382Z,19.02
2023-11-24T00:21:19.820Z,19.03
2023-11-24T00:23:53.585Z,19.08
2023-11-24T00:26:28.084Z,19.06
2023-11-24T00:29:02.747Z,19.09
2023-11-24T00:31:38.045Z,19.10
2023-11-24T00:34:11.679Z,19.06
2023-11-24T00:36:47.584Z,19.06
2023-11-24T00:39:21.130Z,19.08
2023-11-24T00:41:54.512Z,19.07
2023-11-24T00:44:27.940Z,19.04
2023-11-24T00:47:01.507Z,19.06
2023-11-24T00:49:35.901Z,19.07
2023-11-24T00:52:09.827Z,19.07
2023-11-24T00:54:44.001Z,19.06
2023-11-24T00:57:17.611Z,19.06
2023-11-24T00:59:52.064Z,19.03
2023-11-24T01:02:25.706Z,19.03
2023-11-24T01:04:59.179Z,19.03
2023-11-24T01:07:33.416Z,19.06
2023-11-24T01:10:09.070Z,19.00
2023-11-24T01:12:42.704Z,19.02
2023-11-24T01:15:16.882Z,19.04
2023-11-24T01:17:50.385Z,19.04
2023-11-24T01:20:26.286Z,19.04
2023-11-24T01:22:59.790Z,19.06
2023-11-24T01:25:33.160Z,19.03
2023-11-24T01:28:07.314Z,19.02
2023-11-24T01:30:40.888Z,19.01
2023-11-24T01:33:14.535Z,19.04
2023-11-24T01:35:50.296Z,19.02
2023-11-24T01:38:24.676Z,19.02
2023-11-24T01:40:58.586Z,19.03
2023-11-24T01:43:31.981Z,19.02
2023-11-24T01:46:06.615Z,19.01
2023-11-24T01:48:40.118Z,19.04
2023-11-24T01:51:13.582Z,19.04
2023-11-24T01:53:47.021Z,19.04
2023-11-24T01:56:21.308Z,19.04
2023-11-24T01:58:55.264Z,19.05
2023-11-24T02:01:31.464Z,19.05
2023-11-24T02:04:05.377Z,19.03
2023-11-24T02:06:38.873Z,19.02
2023-11-24T02:09:12.407Z,19.02
2023-11-24T02:11:46.000Z,19.02
2023-11-24T02:14:19.414Z,18.98
2023-11-24T02:16:52.878Z,19.01
2023-11-24T02:19:26.388Z,19.00
2023-11-24T02:21:59.876Z,19.01
2023-11-24T02:24:33.353Z,18.99
2023-11-24T02:27:08.382Z,18.98
2023-11-24T02:29:42.229Z,18.99
2023-11-24T02:32:15.987Z,18.98
2023-11-24T02:34:49.884Z,18.97
2023-11-24T02:37:23.305Z,18.95
2023-11-24T02:39:57.002Z,18.96
2023-11-24T02:42:31.407Z,18.94
2023-11-24T02:45:05.129Z,18.97
2023-11-24T02:47:38.857Z,18.96
2023-11-24T02:50:14.014Z,18.97
2023-11-24T02:52:47.412Z,18.95
2023-11-24T02:55:21.214Z,18.94
2023-11-24T02:57:54.639Z,18.94
2023-11-24T03:00:28.294Z,18.94
2023-11-24T03:03:03.288Z,18.92
2023-11-24T03:05:36.739Z,18.93
2023-11-24T03:08:10.637Z,18.93
2023-11-24T03:10:45.025Z,18.93
2023-11-24T03:13:19.204Z,18.91
2023-11-24T03:15:52.602Z,18.92
2023-11-24T03:18:26.125Z,18.91
2023-11-24T03:20:59.577Z,18.89
2023-11-24T03:23:33.037Z,18.88
2023-11-24T03:26:06.567Z,18.87
2023-11-24T03:28:40.240Z,18.85
2023-11-24T03:31:13.709Z,18.86
2023-11-24T03:33:47.409Z,18.83
2023-11-24T03:36:21.258Z,18.82
2023-11-24T03:38:54.842Z,18.83
2023-11-24T03:41:28.302Z,18.81
2023-11-24T03:44:01.884Z,18.79
2023-11-24T03:46:35.346Z,18.78
2023-11-24T03:49:09.102Z,18.77
2023-11-24T03:51:43.059Z,18.78
2023-11-24T03:54:17.130Z,18.76
2023-11-24T03:56:50.645Z,18.78
2023-11-24T03:59:24.374Z,18.77
2023-11-24T04:01:57.795Z,18.76
2023-11-24T04:04:31.422Z,18.73
2023-11-24T04:07:05.070Z,18.75
2023-11-24T04:09:38.662Z,18.73
2023-11-24T04:12:12.555Z,18.72
2023-11-24T04:14:46.035Z,18.69
2023-11-24T04:17:19.586Z,18.68
2023-11-24T04:19:52.957Z,18.68
2023-11-24T04:22:26.671Z,18.69
2023-11-24T04:25:00.052Z,18.70
2023-11-24T04:27:33.952Z,18.69
2023-11-24T04:30:09.136Z,18.70
2023-11-24T04:32:42.665Z,18.69
2023-11-24T04:35:16.980Z,18.68
2023-11-24T04:37:52.084Z,18.68
2023-11-24T04:40:25.752Z,18.67
2023-11-24T04:42:59.267Z,18.67
2023-11-24T04:45:33.255Z,18.67
2023-11-24T04:48:08.055Z,18.69
2023-11-24T04:50:41.539Z,18.65
2023-11-24T04:53:15.315Z,18.64
2023-11-24T04:56:14.028Z,18.64
2023-11-24T04:59:29.456Z,18.65
2023-11-24T05:02:37.209Z,18.61
2023-11-24T05:05:43.753Z,18.60
2023-11-24T05:09:20.830Z,18.58
2023-11-24T05:11:59.414Z,18.57
2023-11-24T05:14:33.761Z,18.56
2023-11-24T05:17:47.912Z,18.54
2023-11-24T05:20:59.948Z,18.55
2023-11-24T05:26:51.020Z,18.50
2023-11-24T05:29:24.671Z,18.53
2023-11-24T05:31:58.223Z,18.57
2023-11-24T05:34:31.652Z,18.56
2023-11-24T05:37:08.921Z,18.50
2023-11-24T05:39:42.553Z,18.50
2023-11-24T05:42:16.546Z,18.47
2023-11-24T05:44:50.247Z,18.45
2023-11-24T05:47:23.723Z,18.47
2023-11-24T05:49:57.573Z,18.48
2023-11-24T05:52:30.961Z,18.45
2023-11-24T05:55:04.738Z,18.45
2023-11-24T05:57:38.597Z,18.44
2023-11-24T06:00:18.172Z,18.42
2023-11-24T06:02:51.820Z,18.48
2023-11-24T06:05:25.327Z,18.47
2023-11-24T06:07:59.498Z,18.45
2023-11-24T06:10:33.096Z,18.44
2023-11-24T06:13:06.508Z,18.43
2023-11-24T06:15:39.993Z,18.42
2023-11-24T06:18:14.099Z,18.41
2023-11-24T06:20:47.638Z,18.36
2023-11-24T06:23:22.345Z,18.33
2023-11-24T06:25:55.930Z,18.32
2023-11-24T06:28:29.670Z,18.33
2023-11-24T06:31:04.281Z,18.30
2023-11-24T06:33:37.910Z,18.28
2023-11-24T06:36:12.725Z,18.29
2023-11-24T06:38:48.812Z,18.30
2023-11-24T06:41:22.302Z,18.31
2023-11-24T06:43:55.775Z,18.29
2023-11-24T06:46:29.170Z,18.29
2023-11-24T06:49:02.816Z,18.26
2023-11-24T06:51:36.397Z,18.25
2023-11-24T06:54:10.320Z,18.29
2023-11-24T06:56:43.782Z,18.28
2023-11-24T06:59:18.091Z,18.29
2023-11-24T07:01:52.011Z,18.29
2023-11-24T07:04:25.621Z,18.27
2023-11-24T07:06:59.527Z,18.27
2023-11-24T07:09:33.089Z,18.28
2023-11-24T07:12:07.187Z,18.32
2023-11-24T07:14:40.584Z,18.34
2023-11-24T07:17:14.256Z,18.38
2023-11-24T07:19:47.646Z,18.38
2023-11-24T07:22:22.423Z,18.39
2023-11-24T07:24:56.585Z,18.39
2023-11-24T07:27:32.408Z,18.42
2023-11-24T07:30:06.848Z,18.40
2023-11-24T07:32:40.686Z,18.43
2023-11-24T07:35:15.322Z,18.43
2023-11-24T07:37:49.313Z,18.46
2023-11-24T07:40:23.064Z,18.43
2023-11-24T07:42:56.645Z,18.43
2023-11-24T07:45:30.313Z,18.42
2023-11-24T07:48:03.871Z,18.42
2023-11-24T07:50:38.310Z,18.45
2023-11-24T07:53:14.685Z,18.43
2023-11-24T07:55:48.383Z,18.42
2023-11-24T07:58:22.099Z,18.44
2023-11-24T08:00:55.712Z,18.44
2023-11-24T08:03:30.839Z,18.43
2023-11-24T08:06:09.070Z,18.42
2023-11-24T08:08:44.876Z,18.45
2023-11-24T08:11:18.552Z,18.52
2023-11-24T08:13:52.419Z,18.49
2023-11-24T08:16:26.215Z,18.51
2023-11-24T08:18:59.728Z,18.51
2023-11-24T08:21:33.587Z,18.55
2023-11-24T08:24:08.056Z,18.51
2023-11-24T08:26:42.522Z,18.49
2023-11-24T08:29:16.863Z,18.52
2023-11-24T08:31:51.034Z,18.52
2023-11-24T08:34:24.462Z,18.53
2023-11-24T08:36:58.047Z,18.49
2023-11-24T08:39:31.785Z,18.45
2023-11-24T08:42:05.483Z,18.44
2023-11-24T08:44:40.365Z,18.46
2023-11-24T08:47:14.535Z,18.40
2023-11-24T08:49:47.951Z,18.42
2023-11-24T08:52:21.592Z,18.38
2023-11-24T08:54:55.437Z,18.39
2023-11-24T08:57:29.079Z,18.34
2023-11-24T09:00:02.500Z,18.32
2023-11-24T09:02:36.365Z,18.34
2023-11-24T09:05:11.729Z,18.31
2023-11-24T09:07:45.751Z,18.29
2023-11-24T09:10:20.326Z,18.26
2023-11-24T09:12:54.182Z,18.27
2023-11-24T09:15:27.746Z,18.20
2023-11-24T09:18:02.677Z,18.26
2023-11-24T09:20:36.063Z,18.33
2023-11-24T09:23:10.468Z,18.20
2023-11-24T09:25:44.203Z,18.30
2023-11-24T09:28:17.875Z,18.36
2023-11-24T09:30:51.399Z,18.33
2023-11-24T09:33:24.902Z,18.32
2023-11-24T09:35:58.495Z,18.24
2023-11-24T09:38:32.383Z,18.21
2023-11-24T09:41:11.071Z,18.25
2023-11-24T09:43:44.876Z,18.28
2023-11-24T09:46:18.665Z,18.31
2023-11-24T09:48:52.906Z,18.31
2023-11-24T09:51:28.103Z,18.31
2023-11-24T09:54:03.939Z,18.25
2023-11-24T09:56:37.667Z,18.18
2023-11-24T09:59:11.696Z,18.21
2023-11-24T10:01:45.323Z,18.21
2023-11-24T10:04:19.184Z,18.17
2023-11-24T10:06:55.353Z,18.12
2023-11-24T10:09:31.371Z,18.19
2023-11-24T10:12:06.824Z,18.23
2023-11-24T10:14:44.685Z,18.23
2023-11-24T10:17:18.439Z,18.23
2023-11-24T10:19:53.146Z,18.23
2023-11-24T10:22:30.456Z,18.18
2023-11-24T10:25:08.768Z,18.20
2023-11-24T10:27:42.653Z,18.22
2023-11-24T10:30:19.634Z,18.16
2023-11-24T10:32:53.272Z,18.21
2023-11-24T10:35:27.074Z,18.20
2023-11-24T10:38:02.686Z,18.21
2023-11-24T10:40:39.260Z,18.21
2023-11-24T10:43:13.037Z,18.23
2023-11-24T10:45:50.897Z,18.23
2023-11-24T10:48:35.099Z,18.36
2023-11-24T10:51:15.327Z,18.31
2023-11-24T10:53:53.622Z,18.20
2023-11-24T10:56:31.059Z,18.21
2023-11-24T10:59:07.233Z,18.08
2023-11-24T11:01:40.842Z,18.04
2023-11-24T11:04:15.871Z,18.00
2023-11-24T11:07:00.103Z,17.96
2023-11-24T11:09:48.721Z,17.90
2023-11-24T11:12:44.562Z,17.93
2023-11-24T11:15:19.161Z,17.92
2023-11-24T11:18:09.835Z,17.09
2023-11-24T11:20:45.619Z,17.66
2023-11-24T11:23:19.338Z,17.90
2023-11-24T11:25:54.997Z,17.96
2023-11-24T11:28:43.448Z,17.94
2023-11-24T11:31:38.980Z,17.94
2023-11-24T11:34:18.843Z,17.95
2023-11-24T11:37:07.395Z,18.01
2023-11-24T11:39:54.608Z,18.01
2023-11-24T11:42:52.505Z,17.97
2023-11-24T11:45:31.269Z,18.06
2023-11-24T11:48:05.850Z,18.06
2023-11-24T11:50:47.074Z,18.03
2023-11-24T11:53:20.480Z,18.04
2023-11-24T11:55:56.673Z,18.00
2023-11-24T11:58:35.625Z,18.03
2023-11-24T12:01:10.738Z,18.07
2023-11-24T12:03:44.936Z,18.03
2023-11-24T12:06:18.396Z,18.07
2023-11-24T12:08:51.821Z,18.08
2023-11-24T12:11:25.262Z,18.09
2023-11-24T12:13:58.644Z,18.10
2023-11-24T12:16:34.754Z,18.11
2023-11-24T12:19:09.061Z,18.13
2023-11-24T12:21:47.358Z,18.06
2023-11-24T12:24:23.478Z,18.07
2023-11-24T12:26:58.629Z,18.11
2023-11-24T12:29:32.619Z,18.13
2023-11-24T12:32:11.240Z,18.16
2023-11-24T12:34:47.845Z,18.14
2023-11-24T12:37:21.406Z,18.21
2023-11-24T12:39:55.470Z,18.22
2023-11-24T12:42:32.050Z,18.22
2023-11-24T12:45:08.316Z,18.20
2023-11-24T12:47:42.857Z,18.16
2023-11-24T12:50:18.865Z,18.14
2023-11-24T12:52:52.305Z,18.23
2023-11-24T12:55:26.007Z,18.24
2023-11-24T12:57:59.651Z,18.31
2023-11-24T13:00:37.548Z,18.36
2023-11-24T13:03:11.797Z,18.24
2023-11-24T13:05:45.789Z,18.24
2023-11-24T13:08:19.260Z,18.25
2023-11-24T13:10:54.694Z,18.22
2023-11-24T13:13:28.174Z,18.25
2023-11-24T13:16:02.960Z,18.31
2023-11-24T13:18:39.104Z,18.34
2023-11-24T13:21:12.683Z,18.31
2023-11-24T13:23:46.946Z,18.25
2023-11-24T13:26:20.634Z,18.26
2023-11-24T13:28:54.749Z,18.26
2023-11-24T13:31:30.042Z,18.27
2023-11-24T13:34:04.764Z,18.28
2023-11-24T13:36:38.307Z,18.27
2023-11-24T13:39:13.981Z,18.29
2023-11-24T13:41:48.329Z,18.30
2023-11-24T13:44:22.138Z,18.29
2023-11-24T13:46:57.976Z,18.33
2023-11-24T13:49:31.704Z,18.33
2023-11-24T13:52:06.106Z,18.30
2023-11-24T13:54:39.567Z,18.32
2023-11-24T13:57:13.378Z,18.44
2023-11-24T13:59:47.393Z,18.44
2023-11-24T14:02:20.997Z,18.44
2023-11-24T14:04:55.826Z,18.42
2023-11-24T14:07:29.337Z,18.47
2023-11-24T14:10:05.505Z,18.40
2023-11-24T14:12:38.918Z,18.41
2023-11-24T14:15:14.935Z,18.45
2023-11-24T14:17:48.687Z,18.47
2023-11-24T14:20:22.441Z,18.52
2023-11-24T14:22:56.141Z,18.59
2023-11-24T14:25:31.736Z,18.59
2023-11-24T14:28:05.375Z,18.49
2023-11-24T14:30:40.095Z,18.55
2023-11-24T14:33:13.875Z,18.50
2023-11-24T14:35:47.377Z,18.65
2023-11-24T14:38:23.168Z,18.68
2023-11-24T14:40:56.653Z,18.62
2023-11-24T14:43:30.252Z,18.78
2023-11-24T14:46:04.022Z,18.64
2023-11-24T14:48:37.490Z,18.59
2023-11-24T14:51:12.223Z,18.59
2023-11-24T14:53:45.671Z,18.73
2023-11-24T14:56:19.640Z,18.70
2023-11-24T14:58:53.572Z,18.66
2023-11-24T15:01:32.891Z,18.67
2023-11-24T15:04:09.025Z,18.80
2023-11-24T15:06:42.453Z,18.81
2023-11-24T15:09:16.815Z,18.81
2023-11-24T15:11:53.472Z,18.82
2023-11-24T15:14:34.430Z,18.84
2023-11-24T15:17:12.334Z,18.97
2023-11-24T15:19:50.060Z,19.06
2023-11-24T15:22:28.120Z,19.08
2023-11-24T15:25:02.008Z,19.07
2023-11-24T15:27:35.538Z,19.03
2023-11-24T15:30:13.105Z,19.04
2023-11-24T15:32:46.494Z,19.02
2023-11-24T15:35:19.979Z,19.07
2023-11-24T15:37:53.593Z,19.08
2023-11-24T15:40:27.140Z,19.04
2023-11-24T15:43:00.675Z,18.97
2023-11-24T15:45:34.242Z,18.94
2023-11-24T15:48:09.061Z,19.00
2023-11-24T15:50:44.424Z,18.96
2023-11-24T15:53:21.140Z,18.96
2023-11-24T15:55:54.609Z,18.98
2023-11-24T15:58:29.096Z,18.93
2023-11-24T16:01:06.922Z,18.85
2023-11-24T16:03:40.798Z,18.84
2023-11-24T16:06:19.028Z,18.86
2023-11-24T16:08:55.910Z,19.05
2023-11-24T16:11:32.978Z,18.91
2023-11-24T16:14:07.469Z,18.86
2023-11-24T16:16:46.764Z,18.90
2023-11-24T16:19:20.811Z,19.03
2023-11-24T16:21:54.259Z,19.11
2023-11-24T16:24:28.483Z,19.02
2023-11-24T16:27:03.785Z,18.98
2023-11-24T16:29:37.290Z,18.97
2023-11-24T16:32:11.234Z,18.96
2023-11-24T16:34:46.841Z,18.97
2023-11-24T16:37:20.515Z,18.99
2023-11-24T16:39:55.747Z,19.00
2023-11-24T16:42:30.039Z,19.00
2023-11-24T16:45:03.597Z,19.12
2023-11-24T16:47:37.742Z,19.18
2023-11-24T16:50:12.775Z,19.11
2023-11-24T16:52:47.748Z,19.03
2023-11-24T16:55:21.689Z,19.05
2023-11-24T16:57:55.187Z,19.05
2023-11-24T17:00:29.751Z,19.10
2023-11-24T17:03:03.273Z,19.03
2023-11-24T17:05:37.822Z,19.05
2023-11-24T17:08:11.227Z,19.06
2023-11-24T17:10:46.361Z,19.03
2023-11-24T17:13:20.008Z,19.01
2023-11-24T17:15:53.480Z,18.99
2023-11-24T17:18:27.151Z,19.18
2023-11-24T17:21:00.694Z,19.33
2023-11-24T17:23:35.044Z,19.09
2023-11-24T17:26:10.862Z,19.06
2023-11-24T17:28:48.047Z,19.30
2023-11-24T17:31:24.459Z,19.10
2023-11-24T17:33:59.053Z,19.09
2023-11-24T17:36:34.420Z,19.03
2023-11-24T17:39:12.781Z,19.03
2023-11-24T17:41:46.326Z,19.09
2023-11-24T17:44:20.236Z,19.08
2023-11-24T17:46:53.902Z,19.05
2023-11-24T17:49:27.975Z,19.03
2023-11-24T17:52:03.126Z,19.03
2023-11-24T17:54:36.928Z,19.04
2023-11-24T17:57:10.690Z,19.08
2023-11-24T17:59:44.547Z,19.05
2023-11-24T18:02:18.000Z,19.11
2023-11-24T18:04:52.645Z,19.09
2023-11-24T18:07:26.867Z,19.09
2023-11-24T18:10:00.476Z,19.10
2023-11-24T18:12:34.148Z,19.06
2023-11-24T18:15:11.210Z,19.10
2023-11-24T18:17:44.853Z,19.10
2023-11-24T18:20:18.924Z,19.08
2023-11-24T18:22:53.548Z,19.08
2023-11-24T18:25:27.199Z,19.11
2023-11-24T18:28:00.679Z,19.12
2023-11-24T18:30:34.894Z,19.11
2023-11-24T18:33:09.610Z,19.09
2023-11-24T18:35:44.677Z,19.11
2023-11-24T18:38:18.432Z,19.15
2023-11-24T18:40:53.295Z,19.16
2023-11-24T18:43:36.697Z,19.12
2023-11-24T18:46:13.414Z,19.11
2023-11-24T18:48:46.948Z,19.16
2023-11-24T18:51:20.652Z,19.17
2023-11-24T18:53:55.124Z,19.18
2023-11-24T18:56:28.696Z,19.14
2023-11-24T18:59:02.288Z,19.14
2023-11-24T19:01:35.833Z,19.12
2023-11-24T19:04:09.668Z,19.11
2023-11-24T19:06:43.272Z,19.12
2023-11-24T19:09:17.453Z,19.16
2023-11-24T19:11:50.889Z,19.14
2023-11-24T19:14:24.664Z,19.12
2023-11-24T19:16:58.321Z,19.13
2023-11-24T19:19:32.583Z,19.12
2023-11-24T19:22:06.559Z,19.19
2023-11-24T19:24:40.229Z,19.23
2023-11-24T19:27:14.561Z,19.24
2023-11-24T19:29:48.008Z,19.25
2023-11-24T19:32:23.112Z,19.18
2023-11-24T19:34:56.748Z,19.23
2023-11-24T19:37:30.366Z,19.15
2023-11-24T19:40:06.817Z,19.07
2023-11-24T19:42:40.434Z,19.25
2023-11-24T19:45:15.135Z,19.26
2023-11-24T19:47:49.198Z,19.17
2023-11-24T19:50:23.190Z,19.12
2023-11-24T19:52:57.111Z,19.24
2023-11-24T19:55:30.733Z,19.21
2023-11-24T19:58:04.862Z,19.25
2023-11-24T20:00:38.310Z,19.28
2023-11-24T20:03:11.880Z,19.28
2023-11-24T20:05:45.552Z,19.24
2023-11-24T20:08:18.933Z,19.20
2023-11-24T20:10:54.030Z,19.15
2023-11-24T20:13:27.611Z,19.20
2023-11-24T20:16:02.085Z,19.17
2023-11-24T20:18:36.038Z,19.18
2023-11-24T20:21:10.113Z,19.16
2023-11-24T20:23:43.642Z,19.17
2023-11-24T20:26:17.124Z,19.18
2023-11-24T20:28:53.228Z,19.20
2023-11-24T20:31:26.989Z,19.17
2023-11-24T20:34:00.609Z,19.18
2023-11-24T20:36:34.721Z,19.16
2023-11-24T20:39:08.799Z,17.02
2023-11-24T20:41:45.620Z,17.74
2023-11-24T20:44:19.552Z,18.67
2023-11-24T20:46:54.435Z,18.88
2023-11-24T20:49:29.302Z,18.98
2023-11-24T20:52:04.969Z,18.94
2023-11-24T20:54:38.941Z,18.96
2023-11-24T20:57:12.361Z,18.99
2023-11-24T20:59:47.260Z,19.03
2023-11-24T21:02:21.655Z,19.03
2023-11-24T21:04:55.206Z,19.02
2023-11-24T21:07:28.855Z,19.01
2023-11-24T21:10:03.259Z,19.04
2023-11-24T21:12:42.550Z,19.03
2023-11-24T21:15:16.522Z,19.06
2023-11-24T21:17:50.779Z,19.09
2023-11-24T21:20:24.636Z,19.11
2023-11-24T21:22:58.099Z,19.08
2023-11-24T21:25:31.945Z,19.08
2023-11-24T21:28:05.782Z,19.04
2023-11-24T21:30:39.296Z,19.07
2023-11-24T21:33:13.194Z,19.07
2023-11-24T21:35:47.093Z,19.06
2023-11-24T21:38:22.198Z,19.05
2023-11-24T21:40:55.822Z,19.02
2023-11-24T21:43:31.877Z,19.02
2023-11-24T21:46:05.426Z,19.07
2023-11-24T21:48:38.926Z,19.11
2023-11-24T21:51:12.485Z,19.12
2023-11-24T21:53:46.383Z,19.15
2023-11-24T21:56:29.965Z,19.13
2023-11-24T21:59:03.764Z,19.22
2023-11-24T22:01:37.720Z,19.11
2023-11-24T22:04:11.919Z,19.08
2023-11-24T22:06:45.403Z,19.03
2023-11-24T22:09:20.679Z,19.03
2023-11-24T22:11:54.184Z,19.03
2023-11-24T22:14:27.785Z,18.98
2023-11-24T22:17:01.957Z,18.98
2023-11-24T22:19:35.647Z,19.02
2023-11-24T22:22:09.288Z,18.99
2023-11-24T22:24:44.323Z,19.01
2023-11-24T22:27:18.363Z,19.01
2023-11-24T22:30:01.366Z,19.05
2023-11-24T22:32:38.311Z,19.03
2023-11-24T22:35:13.099Z,19.00
2023-11-24T22:37:46.817Z,19.00
2023-11-24T22:40:21.009Z,18.98
2023-11-24T22:42:54.398Z,18.97
2023-11-24T22:45:27.774Z,19.06
2023-11-24T22:48:01.294Z,19.12
2023-11-24T22:50:35.800Z,19.05
2023-11-24T22:53:09.205Z,18.99
2023-11-24T22:55:42.919Z,18.99
2023-11-24T22:58:17.080Z,18.96
2023-11-24T23:00:51.654Z,18.98
2023-11-24T23:03:25.241Z,18.99
2023-11-24T23:05:58.918Z,19.00
2023-11-24T23:08:32.825Z,18.98
2023-11-24T23:11:06.550Z,19.00
2023-11-24T23:13:42.055Z,19.00
2023-11-24T23:16:16.056Z,19.02
2023-11-24T23:18:50.613Z,18.97
2023-11-24T23:21:24.563Z,18.99
2023-11-24T23:23:58.278Z,19.03
2023-11-24T23:26:31.748Z,19.05
2023-11-24T23:29:05.210Z,19.02
2023-11-24T23:31:38.996Z,19.04
2023-11-24T23:34:13.050Z,19.04
2023-11-24T23:36:46.506Z,19.06
2023-11-24T23:39:20.506Z,19.03
2023-11-24T23:41:54.367Z,19.02
2023-11-24T23:44:27.828Z,19.07
2023-11-24T23:47:01.655Z,19.07
2023-11-24T23:49:35.159Z,19.13
2023-11-24T23:52:09.336Z,19.04
2023-11-24T23:54:42.759Z,19.03
2023-11-24T23:57:16.278Z,19.07
2023-11-24T23:59:50.096Z,19.09
